Time;durP1;ratioP1;P1;durP2;ratioP2;P2;SDS_P1;SDS_P2;PMS_P1;PMS_P2;Temp;Humidity;BMP_temperature;BMP_pressure;BME280_temperature;BME280_humidity;BME280_pressure;Samples;Min_cycle;Max_cycle;Signal;HPM_P1;HPM_P2
2023/04/02 00:01:02;;;;;;;;;;;6.20;99.90;;;;;;5026688;28;19929;-64
2023/04/02 00:03:58;;;;;;;;;;;6.20;99.90;;;;;;5032712;28;19924;-65
2023/04/02 00:06:33;;;;;;;;;;;6.20;99.90;;;;;;5029432;28;20339;-65
2023/04/02 00:09:03;;;;;;;;;;;6.10;99.90;;;;;;5027159;28;19951;-63
2023/04/02 00:11:33;;;;;;;;;;;6.10;99.90;;;;;;5030757;28;19932;-63
2023/04/02 00:14:00;;;;;;;;;;;6.10;99.90;;;;;;5026657;28;19929;-64
2023/04/02 00:16:27;;;;;;;;;;;6.10;99.90;;;;;;5026632;28;20012;-65
2023/04/02 00:18:55;;;;;;;;;;;6.00;99.90;;;;;;5030974;28;19932;-64
2023/04/02 00:21:22;;;;;;;;;;;6.00;99.90;;;;;;5029823;28;19925;-63
2023/04/02 00:23:49;;;;;;;;;;;5.90;99.90;;;;;;5031998;28;19941;-65
2023/04/02 00:26:21;;;;;;;;;;;5.90;99.90;;;;;;5028535;28;19929;-65
2023/04/02 00:28:50;;;;;;;;;;;5.80;99.90;;;;;;5027906;28;20020;-65
2023/04/02 00:31:17;;;;;;;;;;;5.80;99.90;;;;;;5027686;28;20451;-65
2023/04/02 00:33:44;;;;;;;;;;;5.80;99.90;;;;;;5032389;28;19929;-65
2023/04/02 00:36:11;;;;;;;;;;;5.80;99.90;;;;;;5022088;28;19929;-65
2023/04/02 00:38:42;;;;;;;;;;;5.80;99.90;;;;;;5032266;28;19928;-63
2023/04/02 00:41:14;;;;;;;;;;;5.80;99.90;;;;;;5027631;28;19932;-65
2023/04/02 00:43:43;;;;;;;;;;;5.70;99.90;;;;;;5032224;28;19925;-65
2023/04/02 00:46:14;;;;;;;;;;;5.70;99.90;;;;;;5022303;28;19925;-65
2023/04/02 00:48:44;;;;;;;;;;;5.70;99.90;;;;;;5032401;28;19925;-65
2023/04/02 00:51:14;;;;;;;;;;;5.70;99.90;;;;;;5024462;28;20300;-64
2023/04/02 00:53:41;;;;;;;;;;;5.60;99.90;;;;;;5031993;28;19932;-65
2023/04/02 00:56:12;;;;;;;;;;;5.60;99.90;;;;;;5026066;28;19925;-65
2023/04/02 00:58:39;;;;;;;;;;;5.60;99.90;;;;;;5031927;28;19933;-65
2023/04/02 01:01:15;;;;;;;;;;;5.50;99.90;;;;;;5027912;28;19956;-65
2023/04/02 01:03:43;;;;;;;;;;;5.50;99.90;;;;;;5031996;28;19931;-65
2023/04/02 01:06:14;;;;;;;;;;;5.50;99.90;;;;;;5030831;28;19925;-65
2023/04/02 01:08:50;;;;;;;;;;;5.40;99.90;;;;;;5033594;28;19979;-65
2023/04/02 01:11:25;;;;;;;;;;;5.30;99.90;;;;;;5030242;28;19929;-65
2023/04/02 01:13:58;;;;;;;;;;;5.30;99.90;;;;;;5026690;28;19925;-65
2023/04/02 01:16:30;;;;;;;;;;;5.30;99.90;;;;;;5027806;28;19948;-65
2023/04/02 01:19:01;;;;;;;;;;;5.30;99.90;;;;;;5032955;28;19964;-65
2023/04/02 01:21:46;;;;;;;;;;;5.20;99.90;;;;;;5027768;28;19932;-64
2023/04/02 01:24:13;;;;;;;;;;;5.20;99.90;;;;;;5027576;28;19932;-65
2023/04/02 01:26:44;;;;;;;;;;;5.20;99.90;;;;;;5031950;28;19929;-65
2023/04/02 01:29:13;;;;;;;;;;;5.10;99.90;;;;;;5038021;28;19925;-65
2023/04/02 01:31:41;;;;;;;;;;;5.10;99.90;;;;;;5030417;28;19925;-65
2023/04/02 01:34:08;;;;;;;;;;;5.10;99.90;;;;;;5038792;28;19926;-62
2023/04/02 01:36:39;;;;;;;;;;;5.10;99.90;;;;;;5030828;28;19933;-65
2023/04/02 01:39:09;;;;;;;;;;;5.10;99.90;;;;;;5032102;28;20016;-65
2023/04/02 01:41:39;;;;;;;;;;;5.20;99.90;;;;;;5033536;28;19932;-64
2023/04/02 01:44:07;;;;;;;;;;;5.10;99.90;;;;;;5037681;28;19929;-63
2023/04/02 01:46:38;;;;;;;;;;;5.10;99.90;;;;;;5036210;28;19933;-64
2023/04/02 01:49:11;;;;;;;;;;;5.10;99.90;;;;;;5034096;28;19925;-65
2023/04/02 01:51:40;;;;;;;;;;;5.00;99.90;;;;;;5033814;28;19932;-64
2023/04/02 01:54:07;;;;;;;;;;;5.00;99.90;;;;;;5036769;28;19929;-64
2023/04/02 01:56:34;;;;;;;;;;;5.00;99.90;;;;;;5036331;28;19925;-62
2023/04/02 01:59:02;;;;;;;;;;;4.90;99.90;;;;;;5025055;28;19932;-64
2023/04/02 02:01:31;;;;;;;;;;;4.90;99.90;;;;;;5034069;28;19925;-64
2023/04/02 02:04:00;;;;;;;;;;;4.90;99.90;;;;;;5029318;28;19975;-63
2023/04/02 02:06:26;;;;;;;;;;;4.80;99.90;;;;;;5035415;28;19929;-64
2023/04/02 02:08:54;;;;;;;;;;;4.80;99.90;;;;;;5031191;28;19932;-64
2023/04/02 02:11:22;;;;;;;;;;;4.80;99.90;;;;;;5035555;28;19932;-64
2023/04/02 02:13:51;;;;;;;;;;;4.70;99.90;;;;;;5030972;28;19932;-63
2023/04/02 02:16:18;;;;;;;;;;;4.80;99.90;;;;;;5035316;28;19925;-65
2023/04/02 02:18:48;;;;;;;;;;;4.80;99.90;;;;;;5035789;28;19925;-65
2023/04/02 02:21:21;;;;;;;;;;;4.70;99.90;;;;;;5036207;28;19925;-63
2023/04/02 02:23:47;;;;;;;;;;;4.70;99.90;;;;;;5032849;28;19925;-65
2023/04/02 02:26:14;;;;;;;;;;;4.70;99.90;;;;;;5035945;28;19932;-65
2023/04/02 02:28:42;;;;;;;;;;;4.70;99.90;;;;;;5033548;28;19931;-64
2023/04/02 02:31:12;;;;;;;;;;;4.70;99.90;;;;;;5036651;28;19932;-65
2023/04/02 02:33:41;;;;;;;;;;;4.70;99.90;;;;;;5033279;28;19932;-63
2023/04/02 02:36:12;;;;;;;;;;;4.70;99.90;;;;;;5036396;28;19925;-65
2023/04/02 02:38:45;;;;;;;;;;;4.70;99.90;;;;;;5031927;28;19925;-65
2023/04/02 02:41:16;;;;;;;;;;;4.60;99.90;;;;;;5036891;28;19933;-65
2023/04/02 02:43:46;;;;;;;;;;;4.60;99.90;;;;;;5033434;28;19936;-65
2023/04/02 02:46:16;;;;;;;;;;;4.60;99.90;;;;;;5036663;28;19936;-66
2023/04/02 02:48:43;;;;;;;;;;;4.60;99.90;;;;;;5034041;28;19979;-63
2023/04/02 02:51:15;;;;;;;;;;;4.60;99.90;;;;;;5037569;28;19932;-65
2023/04/02 02:53:48;;;;;;;;;;;4.50;99.90;;;;;;5033987;28;19968;-65
2023/04/02 02:56:15;;;;;;;;;;;4.50;99.90;;;;;;5035684;28;19933;-66
2023/04/02 02:58:42;;;;;;;;;;;4.50;99.90;;;;;;5038810;28;19924;-64
2023/04/02 03:01:09;;;;;;;;;;;4.50;99.90;;;;;;5039808;28;19931;-65
2023/04/02 03:03:35;;;;;;;;;;;4.50;99.90;;;;;;5036373;28;19925;-65
2023/04/02 03:06:04;;;;;;;;;;;4.40;99.90;;;;;;5041220;28;19925;-66
2023/04/02 03:08:33;;;;;;;;;;;4.40;99.90;;;;;;5037534;28;19925;-65
2023/04/02 03:11:03;;;;;;;;;;;4.40;99.90;;;;;;5042483;28;19925;-65
2023/04/02 03:13:34;;;;;;;;;;;4.50;99.90;;;;;;5034901;28;19925;-65
2023/04/02 03:16:03;;;;;;;;;;;4.40;99.90;;;;;;5042581;28;19956;-65
2023/04/02 03:18:37;;;;;;;;;;;4.40;99.90;;;;;;5037506;28;19937;-65
2023/04/02 03:21:07;;;;;;;;;;;4.40;99.90;;;;;;5044676;28;19936;-65
2023/04/02 03:23:36;;;;;;;;;;;4.40;99.90;;;;;;5040988;28;20020;-65
2023/04/02 03:26:07;;;;;;;;;;;4.40;99.90;;;;;;5045219;28;19925;-65
2023/04/02 03:28:36;;;;;;;;;;;4.40;99.90;;;;;;5037276;28;19936;-66
2023/04/02 03:31:03;;;;;;;;;;;4.40;99.90;;;;;;5043022;28;20004;-64
2023/04/02 03:33:32;;;;;;;;;;;4.40;99.90;;;;;;5038407;28;19932;-65
2023/04/02 03:36:02;;;;;;;;;;;4.40;99.90;;;;;;5042429;28;19925;-65
2023/04/02 03:38:31;;;;;;;;;;;4.40;99.90;;;;;;5040237;28;19925;-65
2023/04/02 03:41:01;;;;;;;;;;;4.40;99.90;;;;;;5042112;28;19929;-65
2023/04/02 03:43:31;;;;;;;;;;;4.40;99.90;;;;;;5038671;28;20306;-65
2023/04/02 03:46:00;;;;;;;;;;;4.30;99.90;;;;;;5040820;28;19989;-65
2023/04/02 03:48:30;;;;;;;;;;;4.30;99.90;;;;;;5040117;28;19980;-63
2023/04/02 03:50:58;;;;;;;;;;;4.20;99.90;;;;;;5041241;28;19925;-65
2023/04/02 03:53:26;;;;;;;;;;;4.20;99.90;;;;;;5037339;28;19933;-64
2023/04/02 03:55:53;;;;;;;;;;;4.10;99.90;;;;;;5040661;28;19925;-61
2023/04/02 03:58:21;;;;;;;;;;;4.10;99.90;;;;;;5037340;28;19932;-65
2023/04/02 04:00:51;;;;;;;;;;;4.10;99.90;;;;;;5041547;28;19929;-65
2023/04/02 04:03:19;;;;;;;;;;;4.00;99.90;;;;;;5034063;28;19929;-64
2023/04/02 04:05:48;;;;;;;;;;;4.00;99.90;;;;;;5039474;28;19932;-63
2023/04/02 04:08:16;;;;;;;;;;;4.00;99.90;;;;;;5037072;28;20376;-65
2023/04/02 04:10:43;;;;;;;;;;;3.90;99.90;;;;;;5040851;28;19935;-65
2023/04/02 04:13:12;;;;;;;;;;;3.90;99.90;;;;;;5035199;28;19936;-65
2023/04/02 04:15:41;;;;;;;;;;;3.90;99.90;;;;;;5041745;28;19972;-66
2023/04/02 04:18:18;;;;;;;;;;;3.90;99.90;;;;;;5042534;28;20287;-65
2023/04/02 04:20:49;;;;;;;;;;;3.80;99.90;;;;;;5041599;28;19933;-64
2023/04/02 04:23:18;;;;;;;;;;;3.80;99.90;;;;;;5040871;28;19925;-62
2023/04/02 04:25:49;;;;;;;;;;;3.80;99.90;;;;;;5039191;28;19932;-65
2023/04/02 04:28:23;;;;;;;;;;;3.70;99.90;;;;;;5041401;28;20295;-63
2023/04/02 04:30:51;;;;;;;;;;;3.70;99.90;;;;;;5039195;28;19964;-65
2023/04/02 04:33:21;;;;;;;;;;;3.70;99.90;;;;;;5039659;28;19956;-63
2023/04/02 04:35:49;;;;;;;;;;;3.70;99.90;;;;;;5044375;28;19936;-63
2023/04/02 04:38:20;;;;;;;;;;;4.20;99.90;;;;;;5039894;28;19932;-63
2023/04/02 04:40:52;;;;;;;;;;;3.60;99.90;;;;;;5043642;28;19925;-65
2023/04/02 04:43:20;;;;;;;;;;;3.60;99.90;;;;;;5036247;28;19948;-65
2023/04/02 04:45:50;;;;;;;;;;;3.60;99.90;;;;;;5046740;28;19925;-66
2023/04/02 04:48:19;;;;;;;;;;;3.50;99.90;;;;;;5040742;28;20032;-64
2023/04/02 04:50:48;;;;;;;;;;;3.50;99.90;;;;;;5047957;28;19925;-65
2023/04/02 04:53:16;;;;;;;;;;;3.50;99.90;;;;;;5045196;28;19928;-63
2023/04/02 04:55:44;;;;;;;;;;;3.50;99.90;;;;;;5051822;28;19925;-62
2023/04/02 04:58:16;;;;;;;;;;;3.50;99.90;;;;;;5045280;28;19925;-63
2023/04/02 05:00:48;;;;;;;;;;;3.40;99.90;;;;;;5046520;28;19936;-65
2023/04/02 05:03:19;;;;;;;;;;;3.40;99.90;;;;;;5038375;28;19925;-65
2023/04/02 05:05:46;;;;;;;;;;;3.40;99.90;;;;;;5043709;28;20295;-65
2023/04/02 05:08:16;;;;;;;;;;;3.40;99.90;;;;;;5038673;28;19929;-66
2023/04/02 05:10:46;;;;;;;;;;;3.40;99.90;;;;;;5044535;28;19929;-66
2023/04/02 05:13:16;;;;;;;;;;;3.40;99.90;;;;;;5039764;28;19925;-64
2023/04/02 05:15:46;;;;;;;;;;;3.40;99.90;;;;;;5042772;28;20398;-66
2023/04/02 05:18:17;;;;;;;;;;;3.30;99.90;;;;;;5039804;28;19952;-66
2023/04/02 05:20:47;;;;;;;;;;;3.30;99.90;;;;;;5042656;28;19925;-66
2023/04/02 05:23:16;;;;;;;;;;;3.30;99.90;;;;;;5037498;28;19925;-65
2023/04/02 05:25:51;;;;;;;;;;;3.30;99.90;;;;;;5041360;28;19925;-64
2023/04/02 05:28:19;;;;;;;;;;;3.30;99.90;;;;;;5040299;28;19932;-65
2023/04/02 05:30:51;;;;;;;;;;;3.30;99.90;;;;;;5038824;28;19925;-67
2023/04/02 05:33:22;;;;;;;;;;;3.20;99.90;;;;;;5037533;28;19936;-64
2023/04/02 05:35:51;;;;;;;;;;;3.30;99.90;;;;;;5041134;28;19929;-65
2023/04/02 05:38:20;;;;;;;;;;;3.20;99.90;;;;;;5035708;28;19929;-64
2023/04/02 05:40:48;;;;;;;;;;;3.20;99.90;;;;;;5040362;28;20376;-65
2023/04/02 05:43:17;;;;;;;;;;;3.20;99.90;;;;;;5035956;28;19932;-65
2023/04/02 05:45:45;;;;;;;;;;;3.10;99.90;;;;;;5037116;28;19926;-64
2023/04/02 05:48:16;;;;;;;;;;;3.10;99.90;;;;;;5037860;28;20326;-65
2023/04/02 05:50:44;;;;;;;;;;;3.20;99.90;;;;;;5038093;28;19925;-66
2023/04/02 05:53:14;;;;;;;;;;;3.20;99.90;;;;;;5036211;28;20384;-65
2023/04/02 05:55:50;;;;;;;;;;;3.20;99.90;;;;;;5041020;28;19948;-65
2023/04/02 05:58:20;;;;;;;;;;;3.10;99.90;;;;;;5039543;28;19929;-65
2023/04/02 06:00:53;;;;;;;;;;;3.10;99.90;;;;;;5036174;28;19925;-65
2023/04/02 06:03:25;;;;;;;;;;;3.10;99.90;;;;;;5041134;28;19925;-64
2023/04/02 06:05:53;;;;;;;;;;;3.10;99.90;;;;;;5040275;28;19929;-65
2023/04/02 06:08:21;;;;;;;;;;;3.10;99.90;;;;;;5041206;28;19936;-65
2023/04/02 06:10:53;;;;;;;;;;;3.10;99.90;;;;;;5038789;28;20423;-65
2023/04/02 06:13:20;;;;;;;;;;;3.10;99.90;;;;;;5037742;28;20318;-65
2023/04/02 06:15:46;;;;;;;;;;;3.00;99.90;;;;;;5036513;28;19959;-64
2023/04/02 06:18:16;;;;;;;;;;;3.10;99.90;;;;;;5042229;28;20309;-65
2023/04/02 06:20:42;;;;;;;;;;;3.10;99.90;;;;;;5037524;28;19933;-64
2023/04/02 06:23:12;;;;;;;;;;;3.10;99.90;;;;;;5041581;28;19931;-65
2023/04/02 06:25:40;;;;;;;;;;;3.00;99.90;;;;;;5038169;28;19929;-63
2023/04/02 06:28:14;;;;;;;;;;;2.90;99.90;;;;;;5033401;28;19936;-65
2023/04/02 06:30:41;;;;;;;;;;;2.90;99.90;;;;;;5038145;28;19947;-64
2023/04/02 06:33:09;;;;;;;;;;;2.90;99.90;;;;;;5036145;28;19926;-66
2023/04/02 06:35:38;;;;;;;;;;;2.90;99.90;;;;;;5037063;28;20392;-66
2023/04/02 06:38:06;;;;;;;;;;;2.90;99.90;;;;;;5041103;28;19949;-64
2023/04/02 06:40:36;;;;;;;;;;;2.90;99.90;;;;;;5034944;28;19933;-64
2023/04/02 06:43:07;;;;;;;;;;;2.90;99.90;;;;;;5041405;28;19925;-65
2023/04/02 06:45:40;;;;;;;;;;;2.90;99.90;;;;;;5035103;28;19932;-65
2023/04/02 06:48:11;;;;;;;;;;;2.90;99.90;;;;;;5039669;28;19925;-66
2023/04/02 06:50:41;;;;;;;;;;;2.90;99.90;;;;;;5037417;28;19936;-66
2023/04/02 06:53:11;;;;;;;;;;;2.90;99.90;;;;;;5035425;28;19932;-65
2023/04/02 06:55:41;;;;;;;;;;;2.90;99.90;;;;;;5036166;28;19932;-64
2023/04/02 06:58:08;;;;;;;;;;;2.90;99.90;;;;;;5036596;28;19925;-64
2023/04/02 07:00:37;;;;;;;;;;;2.90;99.90;;;;;;5039684;28;20446;-65
2023/04/02 07:03:06;;;;;;;;;;;3.00;99.90;;;;;;5034182;28;19933;-64
2023/04/02 07:05:32;;;;;;;;;;;3.00;99.90;;;;;;5037390;28;19936;-65
2023/04/02 07:07:59;;;;;;;;;;;2.90;99.90;;;;;;5035675;28;20415;-63
2023/04/02 07:10:26;;;;;;;;;;;2.90;99.90;;;;;;5035332;28;19976;-65
2023/04/02 07:12:52;;;;;;;;;;;2.90;99.90;;;;;;5032223;28;19952;-65
2023/04/02 07:15:19;;;;;;;;;;;2.90;99.90;;;;;;5038024;28;19937;-65
2023/04/02 07:17:47;;;;;;;;;;;2.90;99.90;;;;;;5036979;28;19932;-64
2023/04/02 07:20:24;;;;;;;;;;;2.90;99.90;;;;;;5037454;28;19934;-63
2023/04/02 07:22:50;;;;;;;;;;;2.90;99.90;;;;;;5037083;28;19944;-65
2023/04/02 07:25:17;;;;;;;;;;;2.90;99.90;;;;;;5039139;28;20307;-65
2023/04/02 07:27:43;;;;;;;;;;;2.90;99.90;;;;;;5041363;28;19925;-65
2023/04/02 07:30:10;;;;;;;;;;;3.00;99.90;;;;;;5041172;28;19925;-62
2023/04/02 07:32:37;;;;;;;;;;;3.00;99.90;;;;;;5038799;28;19936;-65
2023/04/02 07:35:05;;;;;;;;;;;3.10;99.90;;;;;;5044196;28;19926;-65
2023/04/02 07:37:32;;;;;;;;;;;3.10;99.90;;;;;;5042868;28;19932;-62
2023/04/02 07:39:58;;;;;;;;;;;3.20;99.90;;;;;;5047185;28;19929;-64
2023/04/02 07:42:25;;;;;;;;;;;3.10;99.90;;;;;;5047128;28;19925;-64
2023/04/02 07:44:51;;;;;;;;;;;3.10;99.90;;;;;;5044611;28;19932;-64
2023/04/02 07:47:18;;;;;;;;;;;3.10;99.90;;;;;;5043018;28;20004;-63
2023/04/02 07:49:45;;;;;;;;;;;3.10;99.90;;;;;;5047226;28;19925;-64
2023/04/02 07:52:12;;;;;;;;;;;3.20;99.90;;;;;;5046201;28;19925;-64
2023/04/02 07:54:39;;;;;;;;;;;3.20;99.90;;;;;;5048553;28;19935;-63
2023/04/02 07:57:06;;;;;;;;;;;3.20;99.90;;;;;;5043617;28;19993;-63
2023/04/02 07:59:32;;;;;;;;;;;3.30;99.90;;;;;;5048360;28;19921;-64
2023/04/02 08:01:59;;;;;;;;;;;3.30;99.90;;;;;;5052937;28;19939;-63
2023/04/02 08:04:26;;;;;;;;;;;3.30;99.90;;;;;;5050361;28;19929;-64
2023/04/02 08:06:52;;;;;;;;;;;3.40;99.90;;;;;;5051627;28;19975;-64
2023/04/02 08:09:20;;;;;;;;;;;3.30;99.90;;;;;;5046875;28;20364;-63
2023/04/02 08:11:47;;;;;;;;;;;3.30;99.90;;;;;;5051515;28;19988;-63
2023/04/02 08:14:13;;;;;;;;;;;3.30;99.90;;;;;;5049036;28;19931;-64
2023/04/02 08:16:43;;;;;;;;;;;3.30;99.90;;;;;;5045302;28;19925;-65
2023/04/02 08:19:10;;;;;;;;;;;3.40;99.90;;;;;;5052836;28;19929;-63
2023/04/02 08:21:37;;;;;;;;;;;3.40;99.90;;;;;;5047690;28;19984;-63
2023/04/02 08:24:03;;;;;;;;;;;3.40;99.90;;;;;;5046022;28;19948;-63
2023/04/02 08:26:31;;;;;;;;;;;3.40;99.90;;;;;;5049003;28;19971;-61
2023/04/02 08:28:58;;;;;;;;;;;3.30;99.90;;;;;;5052151;28;19973;-64
2023/04/02 08:31:24;;;;;;;;;;;3.40;99.90;;;;;;5042401;28;19932;-64
2023/04/02 08:33:52;;;;;;;;;;;3.40;99.90;;;;;;5045689;28;19925;-65
2023/04/02 08:36:20;;;;;;;;;;;3.40;99.90;;;;;;5045600;28;19935;-65
2023/04/02 08:38:46;;;;;;;;;;;3.40;99.90;;;;;;5046009;28;19926;-65
2023/04/02 08:41:20;;;;;;;;;;;3.40;99.90;;;;;;5048770;28;19932;-68
2023/04/02 08:44:02;;;;;;;;;;;3.40;99.90;;;;;;5041454;28;19925;-65
2023/04/02 08:46:31;;;;;;;;;;;3.50;99.90;;;;;;5048584;28;20027;-65
2023/04/02 08:48:58;;;;;;;;;;;3.60;99.90;;;;;;5040476;28;19955;-64
2023/04/02 08:51:26;;;;;;;;;;;3.50;99.90;;;;;;5047865;28;19932;-64
2023/04/02 08:53:53;;;;;;;;;;;3.50;99.90;;;;;;5044745;28;19925;-63
2023/04/02 08:56:24;;;;;;;;;;;3.50;99.90;;;;;;5051002;28;19925;-62
2023/04/02 08:58:53;;;;;;;;;;;3.60;99.90;;;;;;5046392;28;19960;-62
2023/04/02 09:01:26;;;;;;;;;;;3.60;99.90;;;;;;5051621;28;19925;-64
2023/04/02 09:03:55;;;;;;;;;;;3.70;99.90;;;;;;5047211;28;19925;-64
2023/04/02 09:06:22;;;;;;;;;;;3.80;99.90;;;;;;5050858;28;19935;-65
2023/04/02 09:08:51;;;;;;;;;;;3.90;99.90;;;;;;5043911;28;19935;-64
2023/04/02 09:11:22;;;;;;;;;;;3.80;99.90;;;;;;5050262;28;19925;-65
2023/04/02 09:13:52;;;;;;;;;;;3.90;99.90;;;;;;5045375;28;19929;-63
2023/04/02 09:16:21;;;;;;;;;;;4.00;99.90;;;;;;5049596;28;19929;-63
2023/04/02 09:18:51;;;;;;;;;;;3.90;99.90;;;;;;5040593;28;19944;-64
2023/04/02 09:21:22;;;;;;;;;;;3.90;99.90;;;;;;5049345;28;19925;-62
2023/04/02 09:23:49;;;;;;;;;;;3.80;99.90;;;;;;5045206;28;19933;-62
2023/04/02 09:26:20;;;;;;;;;;;3.90;99.90;;;;;;5048842;28;19925;-65
2023/04/02 09:28:46;;;;;;;;;;;3.80;99.90;;;;;;5041547;28;19930;-63
2023/04/02 09:31:16;;;;;;;;;;;3.80;99.90;;;;;;5045600;28;19925;-63
2023/04/02 09:33:45;;;;;;;;;;;3.90;99.90;;;;;;5040531;28;19947;-64
2023/04/02 09:36:19;;;;;;;;;;;3.90;99.90;;;;;;5041314;28;19960;-64
2023/04/02 09:39:00;;;;;;;;;;;3.90;99.90;;;;;;5036685;28;19925;-65
2023/04/02 09:41:27;;;;;;;;;;;3.90;99.90;;;;;;5033561;28;19925;-65
2023/04/02 09:44:10;;;;;;;;;;;4.00;99.90;;;;;;5042828;28;19940;-65
2023/04/02 09:46:37;;;;;;;;;;;3.90;99.90;;;;;;5041956;28;19933;-64
2023/04/02 09:49:04;;;;;;;;;;;3.90;99.90;;;;;;5046413;28;19936;-63
2023/04/02 09:51:35;;;;;;;;;;;3.90;99.90;;;;;;5043848;28;19932;-62
2023/04/02 09:54:09;;;;;;;;;;;3.90;99.90;;;;;;5039268;28;19925;-64
2023/04/02 09:56:36;;;;;;;;;;;3.90;99.90;;;;;;5048126;28;19935;-63
2023/04/02 09:59:04;;;;;;;;;;;3.90;99.90;;;;;;5043385;28;19926;-64
2023/04/02 10:01:32;;;;;;;;;;;4.00;99.90;;;;;;5047877;28;19929;-64
2023/04/02 10:03:59;;;;;;;;;;;4.00;99.90;;;;;;5037595;28;19925;-66
2023/04/02 10:06:27;;;;;;;;;;;4.10;99.90;;;;;;5047459;28;19929;-62
2023/04/02 10:08:55;;;;;;;;;;;4.10;99.90;;;;;;5043823;28;19969;-64
2023/04/02 10:11:24;;;;;;;;;;;4.20;99.90;;;;;;5048231;28;19925;-63
2023/04/02 10:13:52;;;;;;;;;;;4.30;99.90;;;;;;5044864;28;19929;-65
2023/04/02 10:16:23;;;;;;;;;;;4.30;99.90;;;;;;5037592;28;19926;-64
2023/04/02 10:18:51;;;;;;;;;;;4.30;99.90;;;;;;5045759;28;19940;-67
2023/04/02 10:21:20;;;;;;;;;;;4.30;99.90;;;;;;5034146;28;19925;-62
2023/04/02 10:23:46;;;;;;;;;;;4.30;99.90;;;;;;5031569;28;20323;-62
2023/04/02 10:26:31;;;;;;;;;;;4.30;99.90;;;;;;5033475;28;19932;-62
2023/04/02 10:29:08;;;;;;;;;;;4.30;99.90;;;;;;5026121;28;20285;-62
2023/04/02 10:31:43;;;;;;;;;;;4.20;99.90;;;;;;5034076;28;19929;-62
2023/04/02 10:34:14;;;;;;;;;;;4.30;99.90;;;;;;5029867;28;19933;-61
2023/04/02 10:36:49;;;;;;;;;;;4.40;99.90;;;;;;5030443;28;20292;-62
2023/04/02 10:39:19;;;;;;;;;;;4.20;99.90;;;;;;5029613;28;20402;-62
2023/04/02 10:41:47;;;;;;;;;;;4.10;99.90;;;;;;5028365;28;19929;-62
2023/04/02 10:44:27;;;;;;;;;;;4.10;99.10;;;;;;5030800;28;19928;-63
2023/04/02 10:46:59;;;;;;;;;;;4.10;92.90;;;;;;5033127;28;19940;-64
2023/04/02 10:49:30;;;;;;;;;;;4.30;97.20;;;;;;5029019;28;20299;-63
2023/04/02 10:51:59;;;;;;;;;;;4.40;93.30;;;;;;5036861;28;19926;-62
2023/04/02 10:54:43;;;;;;;;;;;4.40;69.40;;;;;;5030748;28;19976;-66
2023/04/02 10:57:13;;;;;;;;;;;4.60;97.30;;;;;;5029711;28;20343;-66
2023/04/02 10:59:44;;;;;;;;;;;4.60;67.20;;;;;;5025233;28;19954;-65
2023/04/02 11:02:22;;;;;;;;;;;4.70;82.60;;;;;;5031107;28;19933;-65
2023/04/02 11:04:50;;;;;;;;;;;4.50;37.10;;;;;;5031269;28;19952;-64
2023/04/02 11:07:18;;;;;;;;;;;4.60;70.00;;;;;;5029303;28;19936;-64
2023/04/02 11:09:48;;;;;;;;;;;4.60;52.60;;;;;;5029845;28;21305;-61
2023/04/02 11:12:19;;;;;;;;;;;4.70;57.90;;;;;;5028903;28;19932;-62
2023/04/02 11:14:49;;;;;;;;;;;4.80;68.80;;;;;;5029268;28;19952;-62
2023/04/02 11:17:16;;;;;;;;;;;4.70;27.40;;;;;;5029655;28;20000;-61
2023/04/02 11:19:43;;;;;;;;;;;4.70;41.90;;;;;;5032124;28;19929;-62
2023/04/02 11:22:14;;;;;;;;;;;4.80;38.40;;;;;;5022551;28;19925;-62
2023/04/02 11:24:44;;;;;;;;;;;4.80;36.30;;;;;;5029854;28;20383;-62
2023/04/02 11:27:16;;;;;;;;;;;4.70;15.50;;;;;;5029816;28;19935;-62
2023/04/02 11:29:44;;;;;;;;;;;4.80;38.20;;;;;;5029505;28;19932;-63
2023/04/02 11:32:24;;;;;;;;;;;5.10;53.60;;;;;;5028519;28;19937;-62
2023/04/02 11:34:57;;;;;;;;;;;5.10;20.80;;;;;;5030249;28;19936;-63
2023/04/02 11:37:31;;;;;;;;;;;5.20;3.40;;;;;;5025969;28;20303;-63
2023/04/02 11:39:59;;;;;;;;;;;5.00;1.00;;;;;;5033027;28;19932;-64
2023/04/02 11:42:27;;;;;;;;;;;5.00;1.00;;;;;;5021237;28;19948;-64
2023/04/02 11:44:54;;;;;;;;;;;4.90;1.00;;;;;;5029222;28;19933;-63
2023/04/02 11:47:23;;;;;;;;;;;4.90;1.00;;;;;;5029283;28;19951;-63
2023/04/02 11:50:01;;;;;;;;;;;4.90;1.00;;;;;;5032429;28;19933;-61
2023/04/02 11:52:30;;;;;;;;;;;5.00;1.00;;;;;;5027109;28;20352;-63
2023/04/02 11:54:58;;;;;;;;;;;5.20;5.00;;;;;;5036315;28;19925;-64
2023/04/02 11:57:35;;;;;;;;;;;5.10;1.00;;;;;;5033387;28;19925;-63
2023/04/02 12:00:12;;;;;;;;;;;5.00;1.00;;;;;;5028802;28;19925;-63
2023/04/02 12:02:48;;;;;;;;;;;5.00;1.00;;;;;;5030071;28;19971;-62
2023/04/02 12:05:19;;;;;;;;;;;5.00;1.00;;;;;;5035916;28;19924;-63
2023/04/02 12:07:55;;;;;;;;;;;5.00;1.00;;;;;;5029283;28;19929;-63
2023/04/02 12:10:22;;;;;;;;;;;5.10;1.00;;;;;;5029923;28;19925;-65
2023/04/02 12:12:49;;;;;;;;;;;5.10;1.00;;;;;;5028531;28;19944;-63
2023/04/02 12:15:32;;;;;;;;;;;5.20;1.00;;;;;;5030538;28;19929;-63
2023/04/02 12:18:04;;;;;;;;;;;5.20;1.00;;;;;;5030675;28;20299;-65
2023/04/02 12:20:31;;;;;;;;;;;5.10;1.00;;;;;;5028776;28;20482;-66
2023/04/02 12:22:58;;;;;;;;;;;5.10;1.00;;;;;;5031536;28;19925;-66
2023/04/02 12:25:28;;;;;;;;;;;5.00;1.00;;;;;;5030475;28;20012;-67
2023/04/02 12:28:05;;;;;;;;;;;5.00;1.00;;;;;;5031676;28;19925;-67
2023/04/02 12:30:31;;;;;;;;;;;5.00;1.00;;;;;;5026529;28;19933;-67
2023/04/02 12:33:13;;;;;;;;;;;5.00;1.00;;;;;;5031831;28;19932;-66
2023/04/02 12:35:40;;;;;;;;;;;5.00;1.00;;;;;;5025864;28;19943;-67
2023/04/02 12:38:16;;;;;;;;;;;5.00;1.00;;;;;;5031369;28;19926;-65
2023/04/02 12:40:50;;;;;;;;;;;5.10;1.00;;;;;;5027082;28;19924;-66
2023/04/02 12:43:22;;;;;;;;;;;5.10;1.00;;;;;;5027091;28;19925;-66
2023/04/02 12:45:51;;;;;;;;;;;5.20;1.00;;;;;;5028221;28;19925;-65
2023/04/02 12:48:19;;;;;;;;;;;5.30;1.00;;;;;;5028837;28;19944;-64
2023/04/02 12:50:45;;;;;;;;;;;5.20;1.00;;;;;;5031429;28;19929;-63
2023/04/02 12:53:18;;;;;;;;;;;5.20;1.00;;;;;;5027051;28;19965;-66
2023/04/02 12:55:46;;;;;;;;;;;5.00;1.00;;;;;;5029317;28;19948;-64
2023/04/02 12:58:23;;;;;;;;;;;5.10;1.00;;;;;;5029620;28;19925;-66
2023/04/02 13:00:50;;;;;;;;;;;5.10;1.00;;;;;;5029417;28;19925;-67
2023/04/02 13:03:20;;;;;;;;;;;5.20;1.00;;;;;;5027223;28;19925;-66
2023/04/02 13:05:49;;;;;;;;;;;5.40;1.00;;;;;;5031405;28;19960;-63
2023/04/02 13:08:17;;;;;;;;;;;5.40;1.00;;;;;;5030391;28;19929;-61
2023/04/02 13:10:44;;;;;;;;;;;5.30;1.00;;;;;;5031053;28;19960;-64
2023/04/02 13:13:14;;;;;;;;;;;5.30;1.00;;;;;;5030218;28;19925;-64
2023/04/02 13:15:42;;;;;;;;;;;5.20;1.00;;;;;;5029025;28;20013;-64
2023/04/02 13:18:18;;;;;;;;;;;5.20;1.00;;;;;;5025705;28;19931;-63
2023/04/02 13:20:56;;;;;;;;;;;5.20;1.00;;;;;;5026210;28;19976;-62
2023/04/02 13:23:24;;;;;;;;;;;5.30;1.00;;;;;;5025370;28;20419;-69
2023/04/02 13:25:51;;;;;;;;;;;5.50;1.00;;;;;;5034021;28;20253;-72
2023/04/02 13:28:18;;;;;;;;;;;5.60;1.00;;;;;;5030373;28;20395;-71
2023/04/02 13:30:44;;;;;;;;;;;5.70;1.00;;;;;;5034480;28;19976;-72
2023/04/02 13:33:11;;;;;;;;;;;5.80;99.90;;;;;;5028702;28;19929;-73
2023/04/02 13:35:38;;;;;;;;;;;5.90;99.90;;;;;;5035021;28;19926;-71
2023/04/02 13:38:07;;;;;;;;;;;5.90;99.90;;;;;;5030776;28;20012;-72
2023/04/02 13:40:35;;;;;;;;;;;6.00;99.90;;;;;;5034823;28;19932;-71
2023/04/02 13:43:02;;;;;;;;;;;6.10;97.70;;;;;;5027608;28;19929;-71
2023/04/02 13:45:30;;;;;;;;;;;6.00;1.00;;;;;;5034066;28;19952;-72
2023/04/02 13:47:59;;;;;;;;;;;5.90;1.00;;;;;;5030486;28;19933;-69
2023/04/02 13:50:27;;;;;;;;;;;6.00;1.00;;;;;;5034601;28;20447;-68
2023/04/02 13:52:54;;;;;;;;;;;6.10;1.00;;;;;;5027541;28;19940;-68
2023/04/02 13:55:23;;;;;;;;;;;6.30;99.90;;;;;;5034261;28;19925;-68
2023/04/02 13:57:49;;;;;;;;;;;6.60;1.00;;;;;;5025545;28;19925;-70
2023/04/02 14:00:17;;;;;;;;;;;6.50;1.00;;;;;;5032915;28;19928;-70
2023/04/02 14:02:46;;;;;;;;;;;6.60;99.90;;;;;;5034021;28;19926;-69
2023/04/02 14:05:17;;;;;;;;;;;6.60;1.00;;;;;;5030198;28;20033;-70
2023/04/02 14:07:49;;;;;;;;;;;6.80;18.20;;;;;;5026452;28;19925;-70
2023/04/02 14:10:22;;;;;;;;;;;6.90;99.90;;;;;;5034612;28;19935;-70
2023/04/02 14:12:56;;;;;;;;;;;7.00;1.00;;;;;;5027421;28;19937;-71
2023/04/02 14:15:27;;;;;;;;;;;7.00;1.00;;;;;;5029574;28;20446;-69
2023/04/02 14:18:02;;;;;;;;;;;7.00;7.00;;;;;;5034648;28;19956;-65
2023/04/02 14:20:33;;;;;;;;;;;7.10;1.00;;;;;;5026806;28;19925;-66
2023/04/02 14:23:08;;;;;;;;;;;6.90;1.00;;;;;;5033993;28;19991;-65
2023/04/02 14:25:38;;;;;;;;;;;6.90;99.90;;;;;;5028407;28;19932;-65
2023/04/02 14:28:11;;;;;;;;;;;7.10;99.90;;;;;;5033350;28;19925;-66
2023/04/02 14:30:43;;;;;;;;;;;7.30;1.00;;;;;;5025026;28;19925;-66
2023/04/02 14:33:14;;;;;;;;;;;7.40;1.00;;;;;;5030566;28;20296;-65
2023/04/02 14:35:42;;;;;;;;;;;7.50;99.90;;;;;;5031683;28;19925;-65
2023/04/02 14:38:12;;;;;;;;;;;7.50;1.00;;;;;;5022788;28;19926;-66
2023/04/02 14:40:45;;;;;;;;;;;7.30;1.00;;;;;;5034029;28;19932;-66
2023/04/02 14:43:15;;;;;;;;;;;7.10;47.30;;;;;;5025842;28;20009;-67
2023/04/02 14:45:46;;;;;;;;;;;7.20;1.00;;;;;;5032030;28;20384;-66
2023/04/02 14:48:20;;;;;;;;;;;7.30;1.00;;;;;;5032276;28;19980;-66